sensor_id;sensor_type;location;lat;lon;timestamp;P1;durP1;ratioP1;P2;durP2;ratioP2
10894;SDS011;5500;49.886;8.074;2023-07-02T00:00:06;3.53;;;1.73;;
10894;SDS011;5500;49.886;8.074;2023-07-02T00:02:35;3.43;;;2.20;;
10894;SDS011;5500;49.886;8.074;2023-07-02T00:05:03;3.30;;;1.90;;
10894;SDS011;5500;49.886;8.074;2023-07-02T00:07:33;6.07;;;2.40;;
10894;SDS011;5500;49.886;8.074;2023-07-02T00:10:03;6.33;;;1.90;;
10894;SDS011;5500;49.886;8.074;2023-07-02T00:12:31;3.87;;;2.20;;
10894;SDS011;5500;49.886;8.074;2023-07-02T00:15:00;3.53;;;1.93;;
10894;SDS011;5500;49.886;8.074;2023-07-02T00:17:28;5.90;;;2.00;;
10894;SDS011;5500;49.886;8.074;2023-07-02T00:19:56;6.03;;;1.83;;
10894;SDS011;5500;49.886;8.074;2023-07-02T00:22:29;2.17;;;1.93;;
10894;SDS011;5500;49.886;8.074;2023-07-02T00:24:58;1.90;;;1.67;;
10894;SDS011;5500;49.886;8.074;2023-07-02T00:27:26;2.10;;;1.70;;
10894;SDS011;5500;49.886;8.074;2023-07-02T00:29:54;4.50;;;1.80;;
10894;SDS011;5500;49.886;8.074;2023-07-02T00:32:22;3.00;;;1.67;;
10894;SDS011;5500;49.886;8.074;2023-07-02T00:34:50;3.17;;;1.80;;
10894;SDS011;5500;49.886;8.074;2023-07-02T00:37:18;2.77;;;2.10;;
10894;SDS011;5500;49.886;8.074;2023-07-02T00:39:46;3.60;;;1.80;;
10894;SDS011;5500;49.886;8.074;2023-07-02T00:42:15;2.80;;;2.00;;
10894;SDS011;5500;49.886;8.074;2023-07-02T00:44:43;2.80;;;1.60;;
10894;SDS011;5500;49.886;8.074;2023-07-02T00:47:12;3.47;;;1.77;;
10894;SDS011;5500;49.886;8.074;2023-07-02T00:49:40;2.43;;;2.10;;
10894;SDS011;5500;49.886;8.074;2023-07-02T00:52:08;2.17;;;1.50;;
10894;SDS011;5500;49.886;8.074;2023-07-02T00:54:36;3.30;;;1.87;;
10894;SDS011;5500;49.886;8.074;2023-07-02T00:57:04;5.70;;;2.23;;
10894;SDS011;5500;49.886;8.074;2023-07-02T00:59:33;4.90;;;1.90;;
10894;SDS011;5500;49.886;8.074;2023-07-02T01:02:02;3.20;;;2.00;;
10894;SDS011;5500;49.886;8.074;2023-07-02T01:04:31;3.93;;;2.00;;
10894;SDS011;5500;49.886;8.074;2023-07-02T01:06:59;2.80;;;1.90;;
10894;SDS011;5500;49.886;8.074;2023-07-02T01:09:28;7.70;;;2.50;;
10894;SDS011;5500;49.886;8.074;2023-07-02T01:11:57;3.87;;;2.10;;
10894;SDS011;5500;49.886;8.074;2023-07-02T01:14:26;5.13;;;2.33;;
10894;SDS011;5500;49.886;8.074;2023-07-02T01:16:57;3.63;;;2.73;;
10894;SDS011;5500;49.886;8.074;2023-07-02T01:19:43;2.80;;;2.40;;
10894;SDS011;5500;49.886;8.074;2023-07-02T01:22:17;7.50;;;2.73;;
10894;SDS011;5500;49.886;8.074;2023-07-02T01:24:46;2.67;;;2.20;;
10894;SDS011;5500;49.886;8.074;2023-07-02T01:27:15;4.23;;;2.30;;
10894;SDS011;5500;49.886;8.074;2023-07-02T01:29:43;2.70;;;2.40;;
10894;SDS011;5500;49.886;8.074;2023-07-02T01:32:15;4.77;;;2.53;;
10894;SDS011;5500;49.886;8.074;2023-07-02T01:34:44;3.80;;;2.70;;
10894;SDS011;5500;49.886;8.074;2023-07-02T01:37:15;5.87;;;2.50;;
10894;SDS011;5500;49.886;8.074;2023-07-02T01:39:46;4.67;;;2.43;;
10894;SDS011;5500;49.886;8.074;2023-07-02T01:42:15;3.93;;;2.40;;
10894;SDS011;5500;49.886;8.074;2023-07-02T01:44:43;4.03;;;2.80;;
10894;SDS011;5500;49.886;8.074;2023-07-02T01:47:12;4.83;;;2.90;;
10894;SDS011;5500;49.886;8.074;2023-07-02T01:49:42;5.47;;;2.57;;
10894;SDS011;5500;49.886;8.074;2023-07-02T01:52:11;4.40;;;2.83;;
10894;SDS011;5500;49.886;8.074;2023-07-02T01:54:39;6.60;;;3.47;;
10894;SDS011;5500;49.886;8.074;2023-07-02T01:57:07;4.80;;;3.27;;
10894;SDS011;5500;49.886;8.074;2023-07-02T01:59:35;6.03;;;3.10;;
10894;SDS011;5500;49.886;8.074;2023-07-02T02:02:02;7.00;;;3.33;;
10894;SDS011;5500;49.886;8.074;2023-07-02T02:04:31;5.27;;;3.40;;
10894;SDS011;5500;49.886;8.074;2023-07-02T02:06:58;5.20;;;3.70;;
10894;SDS011;5500;49.886;8.074;2023-07-02T02:09:28;6.43;;;4.10;;
10894;SDS011;5500;49.886;8.074;2023-07-02T02:11:58;6.50;;;3.90;;
10894;SDS011;5500;49.886;8.074;2023-07-02T02:14:26;6.50;;;3.87;;
10894;SDS011;5500;49.886;8.074;2023-07-02T02:16:57;6.70;;;4.00;;
10894;SDS011;5500;49.886;8.074;2023-07-02T02:19:25;6.13;;;3.63;;
10894;SDS011;5500;49.886;8.074;2023-07-02T02:21:52;6.13;;;3.67;;
10894;SDS011;5500;49.886;8.074;2023-07-02T02:24:20;5.63;;;3.53;;
10894;SDS011;5500;49.886;8.074;2023-07-02T02:26:49;5.63;;;3.63;;
10894;SDS011;5500;49.886;8.074;2023-07-02T02:29:17;4.70;;;3.53;;
10894;SDS011;5500;49.886;8.074;2023-07-02T02:31:45;4.77;;;3.30;;
10894;SDS011;5500;49.886;8.074;2023-07-02T02:34:13;8.90;;;3.53;;
10894;SDS011;5500;49.886;8.074;2023-07-02T02:36:41;5.00;;;4.00;;
10894;SDS011;5500;49.886;8.074;2023-07-02T02:39:09;6.70;;;3.53;;
10894;SDS011;5500;49.886;8.074;2023-07-02T02:41:37;6.20;;;3.80;;
10894;SDS011;5500;49.886;8.074;2023-07-02T02:44:06;5.20;;;3.27;;
10894;SDS011;5500;49.886;8.074;2023-07-02T02:46:34;7.40;;;3.87;;
10894;SDS011;5500;49.886;8.074;2023-07-02T02:49:02;6.80;;;4.23;;
10894;SDS011;5500;49.886;8.074;2023-07-02T02:51:29;6.03;;;3.40;;
10894;SDS011;5500;49.886;8.074;2023-07-02T02:53:57;4.47;;;3.33;;
10894;SDS011;5500;49.886;8.074;2023-07-02T02:56:25;6.00;;;3.40;;
10894;SDS011;5500;49.886;8.074;2023-07-02T02:58:53;4.13;;;3.30;;
10894;SDS011;5500;49.886;8.074;2023-07-02T03:01:22;6.50;;;4.37;;
10894;SDS011;5500;49.886;8.074;2023-07-02T03:03:50;5.50;;;3.77;;
10894;SDS011;5500;49.886;8.074;2023-07-02T03:06:18;6.00;;;3.60;;
10894;SDS011;5500;49.886;8.074;2023-07-02T03:08:45;6.67;;;3.83;;
10894;SDS011;5500;49.886;8.074;2023-07-02T03:11:13;6.87;;;4.13;;
10894;SDS011;5500;49.886;8.074;2023-07-02T03:13:41;5.67;;;3.70;;
10894;SDS011;5500;49.886;8.074;2023-07-02T03:16:08;9.37;;;4.53;;
10894;SDS011;5500;49.886;8.074;2023-07-02T03:18:38;9.00;;;4.47;;
10894;SDS011;5500;49.886;8.074;2023-07-02T03:21:05;7.90;;;4.20;;
10894;SDS011;5500;49.886;8.074;2023-07-02T03:23:35;10.20;;;4.63;;
10894;SDS011;5500;49.886;8.074;2023-07-02T03:26:02;5.47;;;4.10;;
10894;SDS011;5500;49.886;8.074;2023-07-02T03:28:30;7.57;;;4.60;;
10894;SDS011;5500;49.886;8.074;2023-07-02T03:31:00;8.87;;;4.50;;
10894;SDS011;5500;49.886;8.074;2023-07-02T03:33:28;8.37;;;4.53;;
10894;SDS011;5500;49.886;8.074;2023-07-02T03:35:58;6.53;;;4.23;;
10894;SDS011;5500;49.886;8.074;2023-07-02T03:38:27;7.00;;;4.53;;
10894;SDS011;5500;49.886;8.074;2023-07-02T03:40:54;8.07;;;4.83;;
10894;SDS011;5500;49.886;8.074;2023-07-02T03:43:23;7.80;;;4.80;;
10894;SDS011;5500;49.886;8.074;2023-07-02T03:45:51;7.90;;;4.60;;
10894;SDS011;5500;49.886;8.074;2023-07-02T03:48:19;8.83;;;4.90;;
10894;SDS011;5500;49.886;8.074;2023-07-02T03:50:47;9.00;;;5.37;;
10894;SDS011;5500;49.886;8.074;2023-07-02T03:53:16;5.40;;;4.70;;
10894;SDS011;5500;49.886;8.074;2023-07-02T03:55:44;9.50;;;5.37;;
10894;SDS011;5500;49.886;8.074;2023-07-02T03:58:12;6.27;;;5.27;;
10894;SDS011;5500;49.886;8.074;2023-07-02T04:00:39;9.93;;;4.63;;
10894;SDS011;5500;49.886;8.074;2023-07-02T04:03:08;9.47;;;5.30;;
10894;SDS011;5500;49.886;8.074;2023-07-02T04:05:36;10.03;;;4.83;;
10894;SDS011;5500;49.886;8.074;2023-07-02T04:08:04;7.83;;;5.30;;
10894;SDS011;5500;49.886;8.074;2023-07-02T04:10:33;6.77;;;4.60;;
10894;SDS011;5500;49.886;8.074;2023-07-02T04:13:00;8.30;;;5.30;;
10894;SDS011;5500;49.886;8.074;2023-07-02T04:15:28;8.47;;;5.10;;
10894;SDS011;5500;49.886;8.074;2023-07-02T04:17:57;11.67;;;6.03;;
10894;SDS011;5500;49.886;8.074;2023-07-02T04:20:24;9.97;;;6.17;;
10894;SDS011;5500;49.886;8.074;2023-07-02T04:22:54;7.97;;;5.23;;
10894;SDS011;5500;49.886;8.074;2023-07-02T04:25:22;8.27;;;5.70;;
10894;SDS011;5500;49.886;8.074;2023-07-02T04:28:11;7.73;;;5.43;;
10894;SDS011;5500;49.886;8.074;2023-07-02T04:30:39;10.20;;;5.50;;
10894;SDS011;5500;49.886;8.074;2023-07-02T04:33:08;8.90;;;5.63;;
10894;SDS011;5500;49.886;8.074;2023-07-02T04:35:40;10.17;;;5.67;;
10894;SDS011;5500;49.886;8.074;2023-07-02T04:38:08;11.27;;;6.20;;
10894;SDS011;5500;49.886;8.074;2023-07-02T04:40:36;9.30;;;5.33;;
10894;SDS011;5500;49.886;8.074;2023-07-02T04:43:03;10.43;;;6.37;;
10894;SDS011;5500;49.886;8.074;2023-07-02T04:45:32;9.30;;;5.70;;
10894;SDS011;5500;49.886;8.074;2023-07-02T04:48:03;12.00;;;7.07;;
10894;SDS011;5500;49.886;8.074;2023-07-02T04:50:31;9.77;;;6.47;;
10894;SDS011;5500;49.886;8.074;2023-07-02T04:52:58;11.10;;;6.43;;
10894;SDS011;5500;49.886;8.074;2023-07-02T04:55:26;8.57;;;6.50;;
10894;SDS011;5500;49.886;8.074;2023-07-02T04:57:54;9.53;;;7.00;;
10894;SDS011;5500;49.886;8.074;2023-07-02T05:00:22;10.90;;;6.60;;
10894;SDS011;5500;49.886;8.074;2023-07-02T05:02:51;9.27;;;6.77;;
10894;SDS011;5500;49.886;8.074;2023-07-02T05:05:19;12.57;;;7.23;;
10894;SDS011;5500;49.886;8.074;2023-07-02T05:07:47;12.77;;;6.83;;
10894;SDS011;5500;49.886;8.074;2023-07-02T05:10:14;11.23;;;6.80;;
10894;SDS011;5500;49.886;8.074;2023-07-02T05:12:42;12.27;;;7.47;;
10894;SDS011;5500;49.886;8.074;2023-07-02T05:15:10;13.07;;;7.70;;
10894;SDS011;5500;49.886;8.074;2023-07-02T05:17:39;10.80;;;7.33;;
10894;SDS011;5500;49.886;8.074;2023-07-02T05:20:09;10.70;;;6.70;;
10894;SDS011;5500;49.886;8.074;2023-07-02T05:22:37;13.47;;;7.00;;
10894;SDS011;5500;49.886;8.074;2023-07-02T05:25:05;11.27;;;7.63;;
10894;SDS011;5500;49.886;8.074;2023-07-02T05:27:33;14.87;;;7.97;;
10894;SDS011;5500;49.886;8.074;2023-07-02T05:30:01;13.03;;;7.77;;
10894;SDS011;5500;49.886;8.074;2023-07-02T05:32:29;10.83;;;7.03;;
10894;SDS011;5500;49.886;8.074;2023-07-02T05:34:56;12.63;;;7.70;;
10894;SDS011;5500;49.886;8.074;2023-07-02T05:37:25;11.83;;;7.93;;
10894;SDS011;5500;49.886;8.074;2023-07-02T05:39:53;15.30;;;9.27;;
10894;SDS011;5500;49.886;8.074;2023-07-02T05:42:21;13.17;;;9.50;;
10894;SDS011;5500;49.886;8.074;2023-07-02T05:44:49;12.63;;;7.90;;
10894;SDS011;5500;49.886;8.074;2023-07-02T05:47:17;12.93;;;8.73;;
10894;SDS011;5500;49.886;8.074;2023-07-02T05:49:45;11.93;;;9.40;;
10894;SDS011;5500;49.886;8.074;2023-07-02T05:52:12;13.20;;;7.83;;
10894;SDS011;5500;49.886;8.074;2023-07-02T05:54:41;13.97;;;9.87;;
10894;SDS011;5500;49.886;8.074;2023-07-02T05:57:09;13.63;;;8.77;;
10894;SDS011;5500;49.886;8.074;2023-07-02T05:59:37;14.93;;;9.33;;
10894;SDS011;5500;49.886;8.074;2023-07-02T06:02:05;15.03;;;9.43;;
10894;SDS011;5500;49.886;8.074;2023-07-02T06:04:33;14.30;;;9.93;;
10894;SDS011;5500;49.886;8.074;2023-07-02T06:07:01;14.73;;;9.90;;
10894;SDS011;5500;49.886;8.074;2023-07-02T06:09:29;12.03;;;9.70;;
10894;SDS011;5500;49.886;8.074;2023-07-02T06:11:59;15.87;;;9.23;;
10894;SDS011;5500;49.886;8.074;2023-07-02T06:14:26;13.77;;;8.93;;
10894;SDS011;5500;49.886;8.074;2023-07-02T06:16:54;11.57;;;9.63;;
10894;SDS011;5500;49.886;8.074;2023-07-02T06:19:23;15.07;;;9.33;;
10894;SDS011;5500;49.886;8.074;2023-07-02T06:21:51;13.07;;;9.30;;
10894;SDS011;5500;49.886;8.074;2023-07-02T06:24:19;16.07;;;9.70;;
10894;SDS011;5500;49.886;8.074;2023-07-02T06:26:46;17.13;;;10.73;;
10894;SDS011;5500;49.886;8.074;2023-07-02T06:29:15;20.17;;;9.77;;
10894;SDS011;5500;49.886;8.074;2023-07-02T06:31:43;14.27;;;9.57;;
10894;SDS011;5500;49.886;8.074;2023-07-02T06:34:11;14.50;;;9.77;;
10894;SDS011;5500;49.886;8.074;2023-07-02T06:36:38;15.03;;;10.23;;
10894;SDS011;5500;49.886;8.074;2023-07-02T06:39:06;13.50;;;9.43;;
10894;SDS011;5500;49.886;8.074;2023-07-02T06:41:35;14.30;;;9.73;;
10894;SDS011;5500;49.886;8.074;2023-07-02T06:44:03;13.17;;;9.77;;
10894;SDS011;5500;49.886;8.074;2023-07-02T06:46:32;13.00;;;9.83;;
10894;SDS011;5500;49.886;8.074;2023-07-02T06:49:00;14.37;;;9.80;;
10894;SDS011;5500;49.886;8.074;2023-07-02T06:51:27;19.70;;;9.87;;
10894;SDS011;5500;49.886;8.074;2023-07-02T06:53:55;15.37;;;9.80;;
10894;SDS011;5500;49.886;8.074;2023-07-02T06:56:23;15.57;;;9.50;;
10894;SDS011;5500;49.886;8.074;2023-07-02T06:58:50;15.10;;;10.17;;
10894;SDS011;5500;49.886;8.074;2023-07-02T07:01:18;15.47;;;9.97;;
10894;SDS011;5500;49.886;8.074;2023-07-02T07:03:48;15.23;;;10.20;;
10894;SDS011;5500;49.886;8.074;2023-07-02T07:06:16;14.67;;;10.33;;
10894;SDS011;5500;49.886;8.074;2023-07-02T07:08:43;17.37;;;11.03;;
10894;SDS011;5500;49.886;8.074;2023-07-02T07:11:11;15.73;;;10.70;;
10894;SDS011;5500;49.886;8.074;2023-07-02T07:13:38;17.63;;;10.23;;
10894;SDS011;5500;49.886;8.074;2023-07-02T07:16:06;13.23;;;9.87;;
10894;SDS011;5500;49.886;8.074;2023-07-02T07:18:34;16.13;;;10.27;;
10894;SDS011;5500;49.886;8.074;2023-07-02T07:21:03;13.57;;;9.77;;
10894;SDS011;5500;49.886;8.074;2023-07-02T07:23:31;13.57;;;10.33;;
10894;SDS011;5500;49.886;8.074;2023-07-02T07:25:58;11.87;;;9.43;;
10894;SDS011;5500;49.886;8.074;2023-07-02T07:28:26;12.80;;;9.77;;
10894;SDS011;5500;49.886;8.074;2023-07-02T07:30:54;15.43;;;10.00;;
10894;SDS011;5500;49.886;8.074;2023-07-02T07:33:21;10.10;;;8.60;;
10894;SDS011;5500;49.886;8.074;2023-07-02T07:35:49;14.00;;;10.00;;
10894;SDS011;5500;49.886;8.074;2023-07-02T07:38:18;12.83;;;9.63;;
10894;SDS011;5500;49.886;8.074;2023-07-02T07:40:46;12.80;;;9.73;;
10894;SDS011;5500;49.886;8.074;2023-07-02T07:43:14;12.83;;;9.70;;
10894;SDS011;5500;49.886;8.074;2023-07-02T07:45:42;14.40;;;9.77;;
10894;SDS011;5500;49.886;8.074;2023-07-02T07:48:10;13.43;;;9.80;;
10894;SDS011;5500;49.886;8.074;2023-07-02T07:50:38;15.63;;;10.07;;
10894;SDS011;5500;49.886;8.074;2023-07-02T07:53:06;11.63;;;8.77;;
10894;SDS011;5500;49.886;8.074;2023-07-02T07:55:35;15.93;;;10.17;;
10894;SDS011;5500;49.886;8.074;2023-07-02T07:58:03;14.93;;;9.93;;
10894;SDS011;5500;49.886;8.074;2023-07-02T08:00:31;12.23;;;9.10;;
10894;SDS011;5500;49.886;8.074;2023-07-02T08:02:58;14.17;;;9.40;;
10894;SDS011;5500;49.886;8.074;2023-07-02T08:05:28;12.43;;;9.17;;
10894;SDS011;5500;49.886;8.074;2023-07-02T08:07:56;13.17;;;9.17;;
10894;SDS011;5500;49.886;8.074;2023-07-02T08:10:24;14.13;;;10.30;;
10894;SDS011;5500;49.886;8.074;2023-07-02T08:12:55;14.20;;;9.70;;
10894;SDS011;5500;49.886;8.074;2023-07-02T08:15:23;14.37;;;9.07;;
10894;SDS011;5500;49.886;8.074;2023-07-02T08:17:51;12.23;;;8.33;;
10894;SDS011;5500;49.886;8.074;2023-07-02T08:20:21;12.20;;;8.67;;
10894;SDS011;5500;49.886;8.074;2023-07-02T08:22:50;12.07;;;8.00;;
10894;SDS011;5500;49.886;8.074;2023-07-02T08:25:18;13.10;;;8.60;;
10894;SDS011;5500;49.886;8.074;2023-07-02T08:27:47;11.87;;;8.70;;
10894;SDS011;5500;49.886;8.074;2023-07-02T08:30:17;11.67;;;8.73;;
10894;SDS011;5500;49.886;8.074;2023-07-02T08:32:45;10.43;;;7.70;;
10894;SDS011;5500;49.886;8.074;2023-07-02T08:35:13;13.67;;;8.73;;
10894;SDS011;5500;49.886;8.074;2023-07-02T08:37:41;11.43;;;8.10;;
10894;SDS011;5500;49.886;8.074;2023-07-02T08:40:15;12.83;;;8.90;;
10894;SDS011;5500;49.886;8.074;2023-07-02T08:43:01;10.57;;;8.43;;
10894;SDS011;5500;49.886;8.074;2023-07-02T08:45:31;11.10;;;8.27;;
10894;SDS011;5500;49.886;8.074;2023-07-02T08:47:58;13.23;;;9.30;;
10894;SDS011;5500;49.886;8.074;2023-07-02T08:50:26;10.80;;;8.73;;
10894;SDS011;5500;49.886;8.074;2023-07-02T08:52:54;10.67;;;8.73;;
10894;SDS011;5500;49.886;8.074;2023-07-02T08:55:22;10.37;;;7.70;;
10894;SDS011;5500;49.886;8.074;2023-07-02T08:57:52;10.60;;;7.90;;
10894;SDS011;5500;49.886;8.074;2023-07-02T09:00:20;10.87;;;8.60;;
10894;SDS011;5500;49.886;8.074;2023-07-02T09:02:51;15.67;;;8.63;;
10894;SDS011;5500;49.886;8.074;2023-07-02T09:05:21;12.70;;;9.27;;
10894;SDS011;5500;49.886;8.074;2023-07-02T09:07:49;13.23;;;9.53;;
10894;SDS011;5500;49.886;8.074;2023-07-02T09:10:38;12.67;;;9.30;;
10894;SDS011;5500;49.886;8.074;2023-07-02T09:13:06;14.37;;;9.60;;
10894;SDS011;5500;49.886;8.074;2023-07-02T09:15:36;12.60;;;9.37;;
10894;SDS011;5500;49.886;8.074;2023-07-02T09:18:16;14.97;;;10.00;;
10894;SDS011;5500;49.886;8.074;2023-07-02T09:20:49;16.97;;;9.60;;
10894;SDS011;5500;49.886;8.074;2023-07-02T09:23:21;15.00;;;10.67;;
10894;SDS011;5500;49.886;8.074;2023-07-02T09:25:49;16.63;;;11.17;;
10894;SDS011;5500;49.886;8.074;2023-07-02T09:28:17;12.73;;;9.63;;
10894;SDS011;5500;49.886;8.074;2023-07-02T09:30:49;12.80;;;9.37;;
10894;SDS011;5500;49.886;8.074;2023-07-02T09:33:20;14.40;;;10.17;;
10894;SDS011;5500;49.886;8.074;2023-07-02T09:35:48;15.97;;;9.87;;
10894;SDS011;5500;49.886;8.074;2023-07-02T09:38:18;18.57;;;11.03;;
10894;SDS011;5500;49.886;8.074;2023-07-02T09:40:47;16.10;;;10.73;;
10894;SDS011;5500;49.886;8.074;2023-07-02T09:43:16;14.17;;;9.73;;
10894;SDS011;5500;49.886;8.074;2023-07-02T09:45:46;16.83;;;10.63;;
10894;SDS011;5500;49.886;8.074;2023-07-02T09:48:14;14.80;;;10.10;;
10894;SDS011;5500;49.886;8.074;2023-07-02T09:50:45;11.90;;;10.27;;
10894;SDS011;5500;49.886;8.074;2023-07-02T09:53:15;14.27;;;10.43;;
10894;SDS011;5500;49.886;8.074;2023-07-02T09:55:43;15.57;;;10.67;;
10894;SDS011;5500;49.886;8.074;2023-07-02T09:58:11;15.70;;;10.10;;
10894;SDS011;5500;49.886;8.074;2023-07-02T10:00:39;14.47;;;9.93;;
10894;SDS011;5500;49.886;8.074;2023-07-02T10:03:09;14.70;;;10.70;;
10894;SDS011;5500;49.886;8.074;2023-07-02T10:05:37;15.90;;;10.73;;
10894;SDS011;5500;49.886;8.074;2023-07-02T10:08:14;13.37;;;9.90;;
10894;SDS011;5500;49.886;8.074;2023-07-02T10:10:44;17.77;;;11.33;;
10894;SDS011;5500;49.886;8.074;2023-07-02T10:13:13;18.40;;;11.53;;
10894;SDS011;5500;49.886;8.074;2023-07-02T10:15:41;14.57;;;10.13;;
10894;SDS011;5500;49.886;8.074;2023-07-02T10:18:09;16.87;;;11.33;;
10894;SDS011;5500;49.886;8.074;2023-07-02T10:20:37;15.73;;;10.50;;
10894;SDS011;5500;49.886;8.074;2023-07-02T10:23:06;14.77;;;10.37;;
10894;SDS011;5500;49.886;8.074;2023-07-02T10:25:38;14.97;;;10.50;;
10894;SDS011;5500;49.886;8.074;2023-07-02T10:28:16;13.87;;;10.83;;
10894;SDS011;5500;49.886;8.074;2023-07-02T10:30:48;16.47;;;11.27;;
10894;SDS011;5500;49.886;8.074;2023-07-02T10:33:18;20.00;;;11.37;;
10894;SDS011;5500;49.886;8.074;2023-07-02T10:35:47;17.17;;;10.83;;
10894;SDS011;5500;49.886;8.074;2023-07-02T10:38:18;16.00;;;11.90;;
10894;SDS011;5500;49.886;8.074;2023-07-02T10:40:53;14.57;;;10.10;;
10894;SDS011;5500;49.886;8.074;2023-07-02T10:43:25;13.27;;;10.20;;
10894;SDS011;5500;49.886;8.074;2023-07-02T10:45:56;16.77;;;11.13;;
10894;SDS011;5500;49.886;8.074;2023-07-02T10:48:27;16.63;;;11.23;;
10894;SDS011;5500;49.886;8.074;2023-07-02T10:50:55;16.03;;;11.07;;
10894;SDS011;5500;49.886;8.074;2023-07-02T10:53:23;17.27;;;11.43;;
10894;SDS011;5500;49.886;8.074;2023-07-02T10:55:55;12.83;;;10.87;;
10894;SDS011;5500;49.886;8.074;2023-07-02T10:58:24;14.57;;;11.60;;
10894;SDS011;5500;49.886;8.074;2023-07-02T11:00:52;16.40;;;10.40;;
10894;SDS011;5500;49.886;8.074;2023-07-02T11:03:21;16.23;;;11.40;;
10894;SDS011;5500;49.886;8.074;2023-07-02T11:05:50;15.97;;;11.63;;
10894;SDS011;5500;49.886;8.074;2023-07-02T11:08:19;15.40;;;11.20;;
10894;SDS011;5500;49.886;8.074;2023-07-02T11:10:50;17.87;;;11.10;;
10894;SDS011;5500;49.886;8.074;2023-07-02T11:13:21;18.87;;;11.90;;
10894;SDS011;5500;49.886;8.074;2023-07-02T11:15:52;15.33;;;11.50;;
10894;SDS011;5500;49.886;8.074;2023-07-02T11:18:20;13.57;;;10.70;;
10894;SDS011;5500;49.886;8.074;2023-07-02T11:20:48;18.57;;;11.70;;
10894;SDS011;5500;49.886;8.074;2023-07-02T11:23:16;17.53;;;11.83;;
10894;SDS011;5500;49.886;8.074;2023-07-02T11:25:54;18.80;;;13.13;;
10894;SDS011;5500;49.886;8.074;2023-07-02T11:28:24;16.80;;;12.50;;
10894;SDS011;5500;49.886;8.074;2023-07-02T11:30:53;15.53;;;12.80;;
10894;SDS011;5500;49.886;8.074;2023-07-02T11:33:31;17.73;;;12.77;;
10894;SDS011;5500;49.886;8.074;2023-07-02T11:35:59;20.57;;;13.17;;
10894;SDS011;5500;49.886;8.074;2023-07-02T11:38:27;15.87;;;11.73;;
10894;SDS011;5500;49.886;8.074;2023-07-02T11:40:55;16.47;;;12.53;;
10894;SDS011;5500;49.886;8.074;2023-07-02T11:43:24;15.30;;;12.43;;
10894;SDS011;5500;49.886;8.074;2023-07-02T11:45:53;15.50;;;11.63;;
10894;SDS011;5500;49.886;8.074;2023-07-02T11:48:20;21.90;;;11.63;;
10894;SDS011;5500;49.886;8.074;2023-07-02T11:50:48;15.90;;;11.83;;
10894;SDS011;5500;49.886;8.074;2023-07-02T11:53:16;15.97;;;11.10;;
10894;SDS011;5500;49.886;8.074;2023-07-02T11:55:43;21.83;;;11.57;;
10894;SDS011;5500;49.886;8.074;2023-07-02T11:58:11;13.77;;;11.70;;
10894;SDS011;5500;49.886;8.074;2023-07-02T12:00:40;18.83;;;12.30;;
10894;SDS011;5500;49.886;8.074;2023-07-02T12:03:08;18.33;;;11.43;;
10894;SDS011;5500;49.886;8.074;2023-07-02T12:05:37;17.97;;;12.20;;
10894;SDS011;5500;49.886;8.074;2023-07-02T12:08:05;18.63;;;12.33;;
10894;SDS011;5500;49.886;8.074;2023-07-02T12:10:32;15.47;;;10.57;;
10894;SDS011;5500;49.886;8.074;2023-07-02T12:13:03;13.53;;;11.23;;
10894;SDS011;5500;49.886;8.074;2023-07-02T12:15:31;15.80;;;11.80;;
10894;SDS011;5500;49.886;8.074;2023-07-02T12:18:00;13.50;;;10.50;;
10894;SDS011;5500;49.886;8.074;2023-07-02T12:20:28;13.17;;;10.30;;
10894;SDS011;5500;49.886;8.074;2023-07-02T12:22:56;13.10;;;10.17;;
10894;SDS011;5500;49.886;8.074;2023-07-02T12:25:26;13.03;;;9.83;;
10894;SDS011;5500;49.886;8.074;2023-07-02T12:27:54;13.68;;;9.60;;
10894;SDS011;5500;49.886;8.074;2023-07-02T12:30:22;13.77;;;9.55;;
10894;SDS011;5500;49.886;8.074;2023-07-02T12:32:50;14.27;;;10.77;;
10894;SDS011;5500;49.886;8.074;2023-07-02T12:35:19;15.33;;;9.83;;
10894;SDS011;5500;49.886;8.074;2023-07-02T12:37:47;12.48;;;9.25;;
10894;SDS011;5500;49.886;8.074;2023-07-02T12:40:16;17.33;;;11.38;;
10894;SDS011;5500;49.886;8.074;2023-07-02T12:42:45;16.47;;;10.80;;
10894;SDS011;5500;49.886;8.074;2023-07-02T12:45:13;13.68;;;9.57;;
10894;SDS011;5500;49.886;8.074;2023-07-02T12:47:46;13.65;;;10.45;;
10894;SDS011;5500;49.886;8.074;2023-07-02T12:50:14;14.70;;;10.65;;
10894;SDS011;5500;49.886;8.074;2023-07-02T12:52:43;13.95;;;9.95;;
10894;SDS011;5500;49.886;8.074;2023-07-02T12:55:10;13.32;;;10.07;;
10894;SDS011;5500;49.886;8.074;2023-07-02T12:57:38;12.57;;;10.35;;
10894;SDS011;5500;49.886;8.074;2023-07-02T13:00:14;12.35;;;9.73;;
10894;SDS011;5500;49.886;8.074;2023-07-02T13:02:42;13.80;;;11.27;;
10894;SDS011;5500;49.886;8.074;2023-07-02T13:05:29;12.85;;;9.55;;
10894;SDS011;5500;49.886;8.074;2023-07-02T13:08:01;13.73;;;10.70;;
10894;SDS011;5500;49.886;8.074;2023-07-02T13:10:29;15.80;;;10.82;;
10894;SDS011;5500;49.886;8.074;2023-07-02T13:12:57;14.52;;;10.40;;
10894;SDS011;5500;49.886;8.074;2023-07-02T13:15:39;12.35;;;10.73;;
10894;SDS011;5500;49.886;8.074;2023-07-02T13:18:07;18.13;;;11.23;;
10894;SDS011;5500;49.886;8.074;2023-07-02T13:20:34;15.05;;;10.82;;
10894;SDS011;5500;49.886;8.074;2023-07-02T13:23:04;16.88;;;11.10;;
10894;SDS011;5500;49.886;8.074;2023-07-02T13:25:31;14.18;;;10.63;;
10894;SDS011;5500;49.886;8.074;2023-07-02T13:27:59;15.25;;;10.93;;
10894;SDS011;5500;49.886;8.074;2023-07-02T13:30:27;13.75;;;10.63;;
10894;SDS011;5500;49.886;8.074;2023-07-02T13:32:57;13.13;;;10.52;;
10894;SDS011;5500;49.886;8.074;2023-07-02T13:35:24;14.48;;;11.05;;
10894;SDS011;5500;49.886;8.074;2023-07-02T13:37:52;16.27;;;12.18;;
10894;SDS011;5500;49.886;8.074;2023-07-02T13:40:21;16.88;;;10.38;;
10894;SDS011;5500;49.886;8.074;2023-07-02T13:42:50;12.40;;;10.77;;
10894;SDS011;5500;49.886;8.074;2023-07-02T13:45:17;15.20;;;10.90;;
10894;SDS011;5500;49.886;8.074;2023-07-02T13:47:45;14.07;;;11.18;;
10894;SDS011;5500;49.886;8.074;2023-07-02T13:50:13;17.88;;;11.75;;
10894;SDS011;5500;49.886;8.074;2023-07-02T13:52:41;15.73;;;10.98;;
10894;SDS011;5500;49.886;8.074;2023-07-02T13:55:09;17.00;;;11.55;;
10894;SDS011;5500;49.886;8.074;2023-07-02T13:57:38;14.48;;;10.52;;
10894;SDS011;5500;49.886;8.074;2023-07-02T14:00:08;13.52;;;11.18;;
10894;SDS011;5500;49.886;8.074;2023-07-02T14:02:36;16.25;;;12.20;;
10894;SDS011;5500;49.886;8.074;2023-07-02T14:05:05;15.50;;;10.60;;
10894;SDS011;5500;49.886;8.074;2023-07-02T14:07:33;17.67;;;11.23;;
10894;SDS011;5500;49.886;8.074;2023-07-02T14:10:01;18.07;;;11.13;;
10894;SDS011;5500;49.886;8.074;2023-07-02T14:12:28;13.68;;;10.90;;
10894;SDS011;5500;49.886;8.074;2023-07-02T14:14:56;14.10;;;10.77;;
10894;SDS011;5500;49.886;8.074;2023-07-02T14:17:25;15.05;;;10.85;;
10894;SDS011;5500;49.886;8.074;2023-07-02T14:19:53;14.50;;;10.77;;
10894;SDS011;5500;49.886;8.074;2023-07-02T14:22:20;15.50;;;10.60;;
10894;SDS011;5500;49.886;8.074;2023-07-02T14:24:48;13.13;;;10.20;;
10894;SDS011;5500;49.886;8.074;2023-07-02T14:27:16;12.75;;;10.02;;
10894;SDS011;5500;49.886;8.074;2023-07-02T14:29:44;15.83;;;10.67;;
10894;SDS011;5500;49.886;8.074;2023-07-02T14:32:13;15.53;;;10.30;;
10894;SDS011;5500;49.886;8.074;2023-07-02T14:34:43;16.30;;;11.40;;
10894;SDS011;5500;49.886;8.074;2023-07-02T14:37:10;15.10;;;10.95;;
10894;SDS011;5500;49.886;8.074;2023-07-02T14:39:38;15.15;;;10.70;;
10894;SDS011;5500;49.886;8.074;2023-07-02T14:42:13;16.27;;;11.25;;
10894;SDS011;5500;49.886;8.074;2023-07-02T14:44:40;14.32;;;11.48;;
10894;SDS011;5500;49.886;8.074;2023-07-02T14:47:08;16.67;;;11.47;;
10894;SDS011;5500;49.886;8.074;2023-07-02T14:49:36;15.90;;;10.38;;
10894;SDS011;5500;49.886;8.074;2023-07-02T14:52:06;14.52;;;11.23;;
10894;SDS011;5500;49.886;8.074;2023-07-02T14:54:34;16.02;;;11.68;;
10894;SDS011;5500;49.886;8.074;2023-07-02T14:57:02;15.20;;;11.10;;